createdAt,value
2023-05-03T00:00:08.408Z,101444.69
2023-05-03T00:03:10.151Z,101443.94
2023-05-03T00:06:12.563Z,101448.63
2023-05-03T00:09:14.394Z,101439.16
2023-05-03T00:12:15.982Z,101440.31
2023-05-03T00:15:17.429Z,101449.91
2023-05-03T00:18:18.923Z,101442.97
2023-05-03T00:21:20.354Z,101443.97
2023-05-03T00:24:22.327Z,101450.25
2023-05-03T00:27:26.542Z,101450.34
2023-05-03T00:30:27.958Z,101449.50
2023-05-03T00:33:29.366Z,101437.09
2023-05-03T00:36:30.951Z,101445.88
2023-05-03T00:39:32.622Z,101451.88
2023-05-03T00:42:36.756Z,101452.03
2023-05-03T00:45:38.303Z,101453.63
2023-05-03T00:48:39.678Z,101438.03
2023-05-03T00:51:42.177Z,101444.13
2023-05-03T00:54:43.750Z,101443.22
2023-05-03T00:57:45.175Z,101443.34
2023-05-03T01:00:50.168Z,101441.63
2023-05-03T01:03:52.178Z,101435.63
2023-05-03T01:07:17.971Z,101434.84
2023-05-03T01:10:44.148Z,101435.72
2023-05-03T01:13:57.226Z,101427.03
2023-05-03T01:17:05.389Z,101423.63
2023-05-03T01:20:13.110Z,101429.81
2023-05-03T01:23:32.858Z,101427.38
2023-05-03T01:26:34.995Z,101410.69
2023-05-03T01:29:36.473Z,101408.84
2023-05-03T01:32:56.519Z,101415.13
2023-05-03T01:36:04.835Z,101408.28
2023-05-03T01:39:12.417Z,101416.41
2023-05-03T01:42:15.391Z,101404.09
2023-05-03T01:45:17.776Z,101411.72
2023-05-03T01:48:19.686Z,101410.81
2023-05-03T01:51:21.178Z,101418.00
2023-05-03T01:54:23.849Z,101428.72
2023-05-03T01:57:26.291Z,101419.09
2023-05-03T02:00:27.760Z,101420.09
2023-05-03T02:03:29.136Z,101412.13
2023-05-03T02:06:30.727Z,101415.53
2023-05-03T02:09:34.255Z,101415.66
2023-05-03T02:12:35.643Z,101410.44
2023-05-03T02:15:37.162Z,101416.56
2023-05-03T02:18:38.571Z,101410.31
2023-05-03T02:21:39.956Z,101413.69
2023-05-03T02:24:41.349Z,101416.31
2023-05-03T02:27:42.739Z,101418.88
2023-05-03T02:30:44.217Z,101419.75
2023-05-03T02:33:45.692Z,101416.31
2023-05-03T02:36:47.103Z,101420.63
2023-05-03T02:39:49.663Z,101414.53
2023-05-03T02:42:52.156Z,101421.66
2023-05-03T02:45:59.415Z,101425.25
2023-05-03T02:49:01.170Z,101432.28
2023-05-03T02:52:03.304Z,101425.44
2023-05-03T02:55:05.908Z,101435.19
2023-05-03T02:58:07.666Z,101427.41
2023-05-03T03:01:09.153Z,101431.91
2023-05-03T03:04:10.744Z,101437.88
2023-05-03T03:07:12.159Z,101440.44
2023-05-03T03:10:13.614Z,101437.06
2023-05-03T03:13:15.303Z,101441.56
2023-05-03T03:16:16.779Z,101437.13
2023-05-03T03:19:18.274Z,101439.75
2023-05-03T03:22:19.680Z,101446.59
2023-05-03T03:25:21.952Z,101440.56
2023-05-03T03:28:24.130Z,101442.25
2023-05-03T03:31:26.187Z,101444.00
2023-05-03T03:34:30.924Z,101441.41
2023-05-03T03:37:32.671Z,101435.25
2023-05-03T03:40:34.202Z,101428.19
2023-05-03T03:43:35.708Z,101428.13
2023-05-03T03:46:40.334Z,101430.81
2023-05-03T03:49:43.112Z,101427.31
2023-05-03T03:52:44.591Z,101433.38
2023-05-03T03:55:47.176Z,101439.59
2023-05-03T03:58:51.133Z,101437.00
2023-05-03T04:01:52.581Z,101437.88
2023-05-03T04:04:54.095Z,101436.94
2023-05-03T04:07:56.694Z,101429.88
2023-05-03T04:11:02.650Z,101428.13
2023-05-03T04:14:09.169Z,101427.22
2023-05-03T04:17:11.062Z,101434.25
2023-05-03T04:20:13.677Z,101424.59
2023-05-03T04:23:19.372Z,101431.72
2023-05-03T04:26:31.104Z,101440.47
2023-05-03T04:29:41.533Z,101437.81
2023-05-03T04:32:43.247Z,101435.97
2023-05-03T04:35:51.093Z,101446.53
2023-05-03T04:38:52.834Z,101445.72
2023-05-03T04:41:54.305Z,101446.66
2023-05-03T04:44:56.352Z,101445.81
2023-05-03T04:47:58.421Z,101459.03
2023-05-03T04:51:01.330Z,101458.94
2023-05-03T04:54:03.235Z,101454.53
2023-05-03T04:57:04.842Z,101461.47
2023-05-03T05:00:11.217Z,101466.69
2023-05-03T05:03:16.502Z,101463.25
2023-05-03T05:06:18.785Z,101456.28
2023-05-03T05:09:24.715Z,101452.94
2023-05-03T05:12:28.650Z,101453.91
2023-05-03T05:15:30.439Z,101448.63
2023-05-03T05:18:32.827Z,101456.38
2023-05-03T05:21:36.881Z,101454.59
2023-05-03T05:24:38.560Z,101462.53
2023-05-03T05:27:41.390Z,101461.66
2023-05-03T05:30:42.987Z,101456.28
2023-05-03T05:33:44.517Z,101466.75
2023-05-03T05:36:46.724Z,101466.69
2023-05-03T05:39:49.472Z,101462.13
2023-05-03T05:42:53.055Z,101466.31
2023-05-03T05:45:56.219Z,101462.88
2023-05-03T05:48:58.231Z,101464.34
2023-05-03T05:51:59.991Z,101468.34
2023-05-03T05:55:07.632Z,101467.19
2023-05-03T05:58:11.822Z,101460.81
2023-05-03T06:01:18.091Z,101468.50
2023-05-03T06:04:19.652Z,101474.50
2023-05-03T06:07:21.626Z,101468.44
2023-05-03T06:10:23.053Z,101471.72
2023-05-03T06:13:27.465Z,101472.53
2023-05-03T06:16:30.563Z,101467.13
2023-05-03T06:19:32.079Z,101452.81
2023-05-03T06:22:33.642Z,101458.88
2023-05-03T06:25:36.292Z,101456.22
2023-05-03T06:28:38.448Z,101457.41
2023-05-03T06:31:41.882Z,101457.63
2023-05-03T06:34:44.807Z,101462.13
2023-05-03T06:37:47.845Z,101465.63
2023-05-03T06:40:50.350Z,101461.22
2023-05-03T06:43:51.790Z,101461.88
2023-05-03T06:46:53.277Z,101450.56
2023-05-03T06:49:54.982Z,101447.00
2023-05-03T06:52:56.463Z,101447.06
2023-05-03T06:55:57.988Z,101446.16
2023-05-03T06:59:00.330Z,101451.22
2023-05-03T07:02:01.848Z,101444.47
2023-05-03T07:05:03.418Z,101452.00
2023-05-03T07:08:04.911Z,101450.22
2023-05-03T07:11:06.447Z,101462.41
2023-05-03T07:14:07.901Z,101454.03
2023-05-03T07:17:09.931Z,101450.72
2023-05-03T07:20:11.785Z,101443.53
2023-05-03T07:23:13.207Z,101443.63
2023-05-03T07:26:14.568Z,101444.13
2023-05-03T07:29:15.944Z,101433.25
2023-05-03T07:32:17.381Z,101431.13
2023-05-03T07:35:19.367Z,101425.94
2023-05-03T07:38:20.981Z,101430.72
2023-05-03T07:41:22.377Z,101421.44
2023-05-03T07:44:23.812Z,101439.28
2023-05-03T07:47:26.348Z,101431.13
2023-05-03T07:50:27.775Z,101427.84
2023-05-03T07:53:29.173Z,101423.81
2023-05-03T07:56:31.110Z,101421.81
2023-05-03T07:59:32.581Z,101423.28
2023-05-03T08:02:34.136Z,101428.41
2023-05-03T08:05:36.524Z,101435.53
2023-05-03T08:08:38.287Z,101433.03
2023-05-03T08:11:41.623Z,101442.03
2023-05-03T08:14:44.678Z,101435.66
2023-05-03T08:17:46.281Z,101440.31
2023-05-03T08:20:48.096Z,101440.03
2023-05-03T08:23:49.755Z,101439.66
2023-05-03T08:26:51.545Z,101438.31
2023-05-03T08:29:53.103Z,101454.41
2023-05-03T08:32:54.681Z,101444.91
2023-05-03T08:35:56.160Z,101446.84
2023-05-03T08:38:57.553Z,101439.66
2023-05-03T08:42:00.230Z,101437.47
2023-05-03T08:45:03.426Z,101430.22
2023-05-03T08:48:06.731Z,101435.19
2023-05-03T08:51:10.056Z,101424.50
2023-05-03T08:54:11.616Z,101429.25
2023-05-03T08:57:14.934Z,101426.72
2023-05-03T09:00:19.106Z,101427.88
2023-05-03T09:03:20.775Z,101427.06
2023-05-03T09:06:26.940Z,101427.97
2023-05-03T09:09:32.244Z,101423.19
2023-05-03T09:12:40.941Z,101425.13
2023-05-03T09:15:45.179Z,101421.75
2023-05-03T09:18:56.725Z,101427.16
2023-05-03T09:22:06.815Z,101422.47
2023-05-03T09:25:09.252Z,101422.97
2023-05-03T09:28:10.849Z,101418.88
2023-05-03T09:31:13.467Z,101424.53
2023-05-03T09:34:22.694Z,101408.50
2023-05-03T09:37:36.767Z,101414.97
2023-05-03T09:40:46.493Z,101411.69
2023-05-03T09:43:50.291Z,101410.25
2023-05-03T09:47:07.171Z,101408.59
2023-05-03T09:50:08.971Z,101403.38
2023-05-03T09:53:10.721Z,101400.31
2023-05-03T09:56:15.165Z,101395.03
2023-05-03T09:59:16.936Z,101388.91
2023-05-03T10:02:18.438Z,101384.47
2023-05-03T10:05:22.262Z,101385.84
2023-05-03T10:08:34.817Z,101387.81
2023-05-03T10:11:36.786Z,101382.94
2023-05-03T10:14:42.545Z,101377.66
2023-05-03T10:17:48.465Z,101380.97
2023-05-03T10:20:55.228Z,101377.94
2023-05-03T10:24:09.530Z,101365.31
2023-05-03T10:27:11.993Z,101358.63
2023-05-03T10:30:26.012Z,101355.97
2023-05-03T10:33:36.955Z,101354.22
2023-05-03T10:36:48.977Z,101341.81
2023-05-03T10:39:52.976Z,101338.63
2023-05-03T10:42:56.268Z,101329.50
2023-05-03T10:45:58.686Z,101336.31
2023-05-03T10:49:26.386Z,101331.97
2023-05-03T10:52:48.129Z,101329.53
2023-05-03T10:56:05.744Z,101318.09
2023-05-03T10:59:07.181Z,101321.19
2023-05-03T11:02:11.142Z,101320.97
2023-05-03T11:05:15.133Z,101313.88
2023-05-03T11:08:17.865Z,101317.91
2023-05-03T11:11:19.385Z,101314.66
2023-05-03T11:14:21.162Z,101304.78
2023-05-03T11:17:23.501Z,101302.09
2023-05-03T11:20:25.678Z,101299.41
2023-05-03T11:23:29.908Z,101297.59
2023-05-03T11:26:36.123Z,101303.09
2023-05-03T11:29:38.619Z,101295.28
2023-05-03T11:32:43.764Z,101293.34
2023-05-03T11:35:45.238Z,101289.22
2023-05-03T11:38:47.040Z,101294.63
2023-05-03T11:42:08.734Z,101295.94
2023-05-03T11:45:10.620Z,101291.09
2023-05-03T11:48:13.286Z,101277.22
2023-05-03T11:51:15.130Z,101276.88
2023-05-03T11:54:25.428Z,101261.53
2023-05-03T11:57:31.735Z,101262.56
2023-05-03T12:00:33.438Z,101264.13
2023-05-03T12:03:36.156Z,101258.63
2023-05-03T12:06:38.862Z,101250.81
2023-05-03T12:09:43.960Z,101245.47
2023-05-03T12:12:53.505Z,101249.78
2023-05-03T12:16:11.516Z,101241.34
2023-05-03T12:19:24.290Z,101245.34
2023-05-03T12:22:30.450Z,101244.09
2023-05-03T12:25:33.946Z,101248.31
2023-05-03T12:28:36.467Z,101240.22
2023-05-03T12:31:39.498Z,101240.38
2023-05-03T12:34:42.299Z,101236.50
2023-05-03T12:37:44.255Z,101232.56
2023-05-03T12:40:46.761Z,101225.44
2023-05-03T12:43:49.993Z,101223.69
2023-05-03T12:46:53.869Z,101220.22
2023-05-03T12:49:59.376Z,101212.75
2023-05-03T12:53:02.611Z,101208.91
2023-05-03T12:59:23.253Z,101205.22
2023-05-03T13:05:35.852Z,101197.31
2023-05-03T13:08:38.004Z,101191.44
2023-05-03T13:11:39.673Z,101196.84
2023-05-03T13:14:42.462Z,101198.31
2023-05-03T13:17:46.682Z,101182.38
2023-05-03T13:20:50.325Z,101187.28
2023-05-03T13:23:51.752Z,101178.22
2023-05-03T13:26:53.125Z,101170.00
2023-05-03T13:29:54.594Z,101156.06
2023-05-03T13:32:56.046Z,101162.50
2023-05-03T13:35:57.718Z,101165.03
2023-05-03T13:39:00.100Z,101160.94
2023-05-03T13:42:02.311Z,101165.19
2023-05-03T13:45:04.620Z,101150.66
2023-05-03T13:48:17.644Z,101141.56
2023-05-03T13:51:20.683Z,101136.41
2023-05-03T13:54:22.230Z,101132.94
2023-05-03T13:57:23.635Z,101131.13
2023-05-03T14:00:25.138Z,101128.84
2023-05-03T14:03:26.599Z,101118.72
2023-05-03T14:06:29.304Z,101117.25
2023-05-03T14:09:31.856Z,101120.91
2023-05-03T14:12:36.524Z,101115.09
2023-05-03T14:15:39.488Z,101119.00
2023-05-03T14:18:40.980Z,101112.84
2023-05-03T14:21:43.073Z,101113.69
2023-05-03T14:24:45.494Z,101120.03
2023-05-03T14:27:47.224Z,101114.00
2023-05-03T14:30:48.921Z,101107.75
2023-05-03T14:33:50.288Z,101103.75
2023-05-03T14:36:52.458Z,101104.84
2023-05-03T14:39:53.895Z,101105.94
2023-05-03T14:42:55.447Z,101098.19
2023-05-03T14:45:56.837Z,101099.91
2023-05-03T14:48:59.077Z,101106.06
2023-05-03T14:52:00.759Z,101094.88
2023-05-03T14:55:02.273Z,101092.19
2023-05-03T14:58:03.761Z,101093.38
2023-05-03T15:01:05.199Z,101094.59
2023-05-03T15:04:10.422Z,101096.13
2023-05-03T15:07:12.220Z,101090.09
2023-05-03T15:10:13.662Z,101100.13
2023-05-03T15:13:16.107Z,101092.63
2023-05-03T15:16:18.192Z,101093.94
2023-05-03T15:19:19.595Z,101092.97
2023-05-03T15:22:21.044Z,101094.66
2023-05-03T15:25:22.495Z,101089.50
2023-05-03T15:28:23.911Z,101088.75
2023-05-03T15:31:25.594Z,101089.78
2023-05-03T15:34:27.152Z,101085.00
2023-05-03T15:37:35.815Z,101078.72
2023-05-03T15:40:37.677Z,101081.06
2023-05-03T15:43:39.102Z,101085.22
2023-05-03T15:46:42.674Z,101074.59
2023-05-03T15:49:44.520Z,101064.41
2023-05-03T15:52:48.861Z,101064.94
2023-05-03T15:55:52.617Z,101074.03
2023-05-03T15:58:54.048Z,101068.09
2023-05-03T16:01:55.482Z,101059.78
2023-05-03T16:04:56.946Z,101063.00
2023-05-03T16:07:58.362Z,101059.06
2023-05-03T16:11:00.030Z,101063.06
2023-05-03T16:14:01.496Z,101055.91
2023-05-03T16:17:03.153Z,101060.41
2023-05-03T16:20:05.781Z,101057.47
2023-05-03T16:23:09.716Z,101052.47
2023-05-03T16:26:14.274Z,101059.22
2023-05-03T16:29:17.286Z,101053.59
2023-05-03T16:32:19.122Z,101049.84
2023-05-03T16:35:20.656Z,101046.03
2023-05-03T16:38:22.272Z,101047.31
2023-05-03T16:41:24.224Z,101046.91
2023-05-03T16:44:26.039Z,101041.84
2023-05-03T16:47:27.480Z,101041.78
2023-05-03T16:50:28.857Z,101042.41
2023-05-03T16:53:31.229Z,101044.22
2023-05-03T16:56:32.802Z,101038.88
2023-05-03T16:59:34.290Z,101035.94
2023-05-03T17:02:36.474Z,101035.84
2023-05-03T17:05:38.079Z,101037.78
2023-05-03T17:08:39.762Z,101044.97
2023-05-03T17:11:41.315Z,101042.34
2023-05-03T17:14:42.842Z,101039.88
2023-05-03T17:17:44.285Z,101043.63
2023-05-03T17:20:46.245Z,101047.13
2023-05-03T17:23:47.787Z,101046.78
2023-05-03T17:26:49.247Z,101049.72
2023-05-03T17:29:51.039Z,101044.34
2023-05-03T17:32:52.516Z,101049.25
2023-05-03T17:35:55.582Z,101043.63
2023-05-03T17:38:57.252Z,101052.41
2023-05-03T17:41:58.761Z,101050.88
2023-05-03T17:45:01.501Z,101054.06
2023-05-03T17:48:03.609Z,101054.91
2023-05-03T17:51:05.986Z,101059.91
2023-05-03T17:54:07.480Z,101055.84
2023-05-03T17:57:09.709Z,101062.66
2023-05-03T18:00:15.385Z,101052.63
2023-05-03T18:03:18.015Z,101053.53
2023-05-03T18:06:19.664Z,101056.22
2023-05-03T18:09:21.034Z,101056.97
2023-05-03T18:12:22.631Z,101058.97
2023-05-03T18:15:24.010Z,101055.94
2023-05-03T18:18:25.547Z,101057.63
2023-05-03T18:21:27.790Z,101063.41
2023-05-03T18:24:29.238Z,101054.72
2023-05-03T18:27:30.608Z,101053.94
2023-05-03T18:30:32.519Z,101058.69
2023-05-03T18:33:33.960Z,101053.38
2023-05-03T18:36:35.509Z,101058.09
2023-05-03T18:39:36.887Z,101063.19
2023-05-03T18:42:38.273Z,101072.94
2023-05-03T18:45:40.248Z,101067.25
2023-05-03T18:48:41.638Z,101073.34
2023-05-03T18:51:43.445Z,101068.94
2023-05-03T18:54:44.821Z,101069.44
2023-05-03T18:57:46.286Z,101074.06
2023-05-03T19:00:47.869Z,101071.31
2023-05-03T19:03:49.544Z,101071.66
2023-05-03T19:06:50.972Z,101077.31
2023-05-03T19:09:57.009Z,101075.16
2023-05-03T19:12:58.475Z,101072.81
2023-05-03T19:15:59.858Z,101077.47
2023-05-03T19:19:02.129Z,101079.75
2023-05-03T19:22:03.646Z,101085.63
2023-05-03T19:25:05.844Z,101087.28
2023-05-03T19:28:07.911Z,101092.84
2023-05-03T19:31:09.789Z,101094.66
2023-05-03T19:34:11.409Z,101096.53
2023-05-03T19:37:13.037Z,101090.88
2023-05-03T19:40:14.498Z,101089.22
2023-05-03T19:43:15.877Z,101092.28
2023-05-03T19:46:19.738Z,101086.53
2023-05-03T19:49:21.952Z,101090.31
2023-05-03T19:52:23.435Z,101089.59
2023-05-03T19:55:25.636Z,101082.53
2023-05-03T19:58:27.947Z,101076.53
2023-05-03T20:01:29.472Z,101081.41
2023-05-03T20:04:30.990Z,101087.78
2023-05-03T20:07:32.525Z,101090.50
2023-05-03T20:10:36.271Z,101092.31
2023-05-03T20:13:37.679Z,101081.00
2023-05-03T20:16:40.681Z,101084.03
2023-05-03T20:19:42.309Z,101080.38
2023-05-03T20:22:43.709Z,101075.81
2023-05-03T20:25:45.114Z,101080.59
2023-05-03T20:28:46.667Z,101081.53
2023-05-03T20:31:51.047Z,101079.00
2023-05-03T20:34:52.517Z,101080.03
2023-05-03T20:37:53.886Z,101082.06
2023-05-03T20:40:55.368Z,101070.84
2023-05-03T20:43:56.766Z,101074.44
2023-05-03T20:46:58.135Z,101072.09
2023-05-03T20:49:59.857Z,101074.97
2023-05-03T20:53:01.745Z,101068.72
2023-05-03T20:56:06.242Z,101066.22
2023-05-03T20:59:08.101Z,101069.16
2023-05-03T21:02:09.544Z,101067.50
2023-05-03T21:05:11.355Z,101065.28
2023-05-03T21:08:12.852Z,101066.03
2023-05-03T21:11:14.395Z,101060.03
2023-05-03T21:14:18.381Z,101060.88
2023-05-03T21:17:19.952Z,101061.28
2023-05-03T21:20:22.234Z,101056.13
2023-05-03T21:23:23.611Z,101060.56
2023-05-03T21:26:25.135Z,101058.84
2023-05-03T21:29:26.509Z,101059.13
2023-05-03T21:32:27.926Z,101061.94
2023-05-03T21:35:29.344Z,101057.81
2023-05-03T21:38:30.883Z,101055.97
2023-05-03T21:41:32.261Z,101063.16
2023-05-03T21:44:33.656Z,101053.72
2023-05-03T21:47:35.089Z,101047.47
2023-05-03T21:50:39.909Z,101042.31
2023-05-03T21:53:41.304Z,101041.81
2023-05-03T21:56:42.706Z,101039.25
2023-05-03T21:59:44.550Z,101034.00
2023-05-03T22:02:46.412Z,101034.81
2023-05-03T22:05:50.277Z,101026.97
2023-05-03T22:08:51.649Z,101022.63
2023-05-03T22:11:53.111Z,101026.31
2023-05-03T22:14:54.573Z,101021.56
2023-05-03T22:17:56.653Z,101021.91
2023-05-03T22:20:58.187Z,101019.25
2023-05-03T22:23:59.595Z,101018.66
2023-05-03T22:27:00.998Z,101019.69
2023-05-03T22:30:02.591Z,101019.69
2023-05-03T22:33:04.298Z,101017.94
2023-05-03T22:36:06.558Z,101014.56
2023-05-03T22:39:08.042Z,101028.09
2023-05-03T22:42:09.422Z,101023.69
2023-05-03T22:45:11.270Z,101022.91
2023-05-03T22:48:12.813Z,101018.66
2023-05-03T22:51:14.218Z,101023.16
2023-05-03T22:54:15.981Z,101023.03
2023-05-03T22:57:17.362Z,101023.47
2023-05-03T23:00:21.182Z,101018.53
2023-05-03T23:03:22.980Z,101018.63
2023-05-03T23:06:24.977Z,101017.72
2023-05-03T23:09:26.946Z,101014.59
2023-05-03T23:12:28.433Z,101020.88
2023-05-03T23:15:30.147Z,101012.50
2023-05-03T23:18:31.542Z,101015.16
2023-05-03T23:21:33.762Z,101008.47
2023-05-03T23:24:35.280Z,101013.00
2023-05-03T23:27:36.751Z,101009.84
2023-05-03T23:30:45.260Z,101014.38
2023-05-03T23:33:47.117Z,101010.06
2023-05-03T23:36:48.531Z,101006.00
2023-05-03T23:39:50.365Z,101013.28
2023-05-03T23:42:51.886Z,101006.50
2023-05-03T23:45:53.303Z,101002.56
2023-05-03T23:48:54.904Z,101006.28
2023-05-03T23:51:56.298Z,101002.31
2023-05-03T23:54:57.714Z,101004.84
2023-05-03T23:57:59.085Z,101005.84
